sensor_id;sensor_type;location;lat;lon;timestamp;P1;durP1;ratioP1;P2;durP2;ratioP2
29002;SDS011;16102;57.138;-2.118;2023-10-09T00:02:10;0.98;;;0.90;;
29002;SDS011;16102;57.138;-2.118;2023-10-09T00:04:41;0.98;;;0.60;;
29002;SDS011;16102;57.138;-2.118;2023-10-09T00:07:12;0.40;;;0.40;;
29002;SDS011;16102;57.138;-2.118;2023-10-09T00:09:43;0.50;;;0.50;;
29002;SDS011;16102;57.138;-2.118;2023-10-09T00:12:17;0.47;;;0.47;;
29002;SDS011;16102;57.138;-2.118;2023-10-09T00:14:50;0.73;;;0.73;;
29002;SDS011;16102;57.138;-2.118;2023-10-09T00:17:22;0.98;;;0.93;;
29002;SDS011;16102;57.138;-2.118;2023-10-09T00:19:50;0.22;;;0.22;;
29002;SDS011;16102;57.138;-2.118;2023-10-09T00:22:18;0.85;;;0.77;;
29002;SDS011;16102;57.138;-2.118;2023-10-09T00:24:56;0.70;;;0.70;;
29002;SDS011;16102;57.138;-2.118;2023-10-09T00:27:38;1.02;;;0.52;;
29002;SDS011;16102;57.138;-2.118;2023-10-09T00:30:09;0.50;;;0.50;;
29002;SDS011;16102;57.138;-2.118;2023-10-09T00:32:42;0.60;;;0.60;;
29002;SDS011;16102;57.138;-2.118;2023-10-09T00:35:17;0.60;;;0.55;;
29002;SDS011;16102;57.138;-2.118;2023-10-09T00:38:03;0.75;;;0.40;;
29002;SDS011;16102;57.138;-2.118;2023-10-09T00:40:40;0.50;;;0.50;;
29002;SDS011;16102;57.138;-2.118;2023-10-09T00:43:13;0.57;;;0.50;;
29002;SDS011;16102;57.138;-2.118;2023-10-09T00:45:41;0.60;;;0.60;;
29002;SDS011;16102;57.138;-2.118;2023-10-09T00:48:11;0.50;;;0.50;;
29002;SDS011;16102;57.138;-2.118;2023-10-09T00:50:48;0.63;;;0.63;;
29002;SDS011;16102;57.138;-2.118;2023-10-09T00:53:20;0.50;;;0.50;;
29002;SDS011;16102;57.138;-2.118;2023-10-09T00:55:58;2.33;;;0.60;;
29002;SDS011;16102;57.138;-2.118;2023-10-09T00:58:31;0.57;;;0.55;;
29002;SDS011;16102;57.138;-2.118;2023-10-09T01:01:03;0.43;;;0.43;;
29002;SDS011;16102;57.138;-2.118;2023-10-09T01:03:31;0.93;;;0.85;;
29002;SDS011;16102;57.138;-2.118;2023-10-09T01:06:01;0.60;;;0.60;;
29002;SDS011;16102;57.138;-2.118;2023-10-09T01:08:40;0.82;;;0.70;;
29002;SDS011;16102;57.138;-2.118;2023-10-09T01:11:10;0.60;;;0.60;;
29002;SDS011;16102;57.138;-2.118;2023-10-09T01:13:56;0.50;;;0.50;;
29002;SDS011;16102;57.138;-2.118;2023-10-09T01:16:35;0.73;;;0.60;;
29002;SDS011;16102;57.138;-2.118;2023-10-09T01:19:02;0.55;;;0.55;;
29002;SDS011;16102;57.138;-2.118;2023-10-09T01:21:39;0.80;;;0.80;;
29002;SDS011;16102;57.138;-2.118;2023-10-09T01:24:06;0.65;;;0.57;;
29002;SDS011;16102;57.138;-2.118;2023-10-09T01:26:39;0.60;;;0.60;;
29002;SDS011;16102;57.138;-2.118;2023-10-09T01:29:15;0.82;;;0.60;;
29002;SDS011;16102;57.138;-2.118;2023-10-09T01:31:46;0.70;;;0.70;;
29002;SDS011;16102;57.138;-2.118;2023-10-09T01:34:31;0.52;;;0.52;;
29002;SDS011;16102;57.138;-2.118;2023-10-09T01:37:09;0.60;;;0.60;;
29002;SDS011;16102;57.138;-2.118;2023-10-09T01:39:50;0.70;;;0.60;;
29002;SDS011;16102;57.138;-2.118;2023-10-09T01:42:19;2.25;;;0.52;;
29002;SDS011;16102;57.138;-2.118;2023-10-09T01:44:58;1.02;;;0.57;;
29002;SDS011;16102;57.138;-2.118;2023-10-09T01:47:37;0.60;;;0.60;;
29002;SDS011;16102;57.138;-2.118;2023-10-09T01:50:07;0.50;;;0.50;;
29002;SDS011;16102;57.138;-2.118;2023-10-09T01:52:45;0.60;;;0.60;;
29002;SDS011;16102;57.138;-2.118;2023-10-09T01:55:15;0.73;;;0.70;;
29002;SDS011;16102;57.138;-2.118;2023-10-09T01:58:04;0.60;;;0.60;;
29002;SDS011;16102;57.138;-2.118;2023-10-09T02:00:49;0.70;;;0.70;;
29002;SDS011;16102;57.138;-2.118;2023-10-09T02:03:23;1.05;;;0.75;;
29002;SDS011;16102;57.138;-2.118;2023-10-09T02:05:51;2.72;;;0.70;;
29002;SDS011;16102;57.138;-2.118;2023-10-09T02:08:29;0.70;;;0.70;;
29002;SDS011;16102;57.138;-2.118;2023-10-09T02:10:56;0.52;;;0.52;;
29002;SDS011;16102;57.138;-2.118;2023-10-09T02:13:23;0.90;;;0.80;;
29002;SDS011;16102;57.138;-2.118;2023-10-09T02:15:58;0.77;;;0.77;;
29002;SDS011;16102;57.138;-2.118;2023-10-09T02:18:39;0.65;;;0.60;;
29002;SDS011;16102;57.138;-2.118;2023-10-09T02:21:07;0.65;;;0.65;;
29002;SDS011;16102;57.138;-2.118;2023-10-09T02:23:35;0.52;;;0.50;;
29002;SDS011;16102;57.138;-2.118;2023-10-09T02:26:12;0.55;;;0.50;;
29002;SDS011;16102;57.138;-2.118;2023-10-09T02:28:53;1.60;;;0.70;;
29002;SDS011;16102;57.138;-2.118;2023-10-09T02:31:30;0.50;;;0.50;;
29002;SDS011;16102;57.138;-2.118;2023-10-09T02:34:07;0.57;;;0.57;;
29002;SDS011;16102;57.138;-2.118;2023-10-09T02:36:34;0.65;;;0.65;;
29002;SDS011;16102;57.138;-2.118;2023-10-09T02:39:05;0.73;;;0.63;;
29002;SDS011;16102;57.138;-2.118;2023-10-09T02:41:32;0.40;;;0.40;;
29002;SDS011;16102;57.138;-2.118;2023-10-09T02:44:01;0.60;;;0.60;;
29002;SDS011;16102;57.138;-2.118;2023-10-09T02:46:38;2.17;;;0.40;;
29002;SDS011;16102;57.138;-2.118;2023-10-09T02:49:06;0.60;;;0.45;;
29002;SDS011;16102;57.138;-2.118;2023-10-09T02:51:36;0.50;;;0.50;;
29002;SDS011;16102;57.138;-2.118;2023-10-09T02:54:09;0.75;;;0.73;;
29002;SDS011;16102;57.138;-2.118;2023-10-09T02:56:46;0.30;;;0.30;;
29002;SDS011;16102;57.138;-2.118;2023-10-09T02:59:34;0.40;;;0.40;;
29002;SDS011;16102;57.138;-2.118;2023-10-09T03:02:05;0.95;;;0.40;;
29002;SDS011;16102;57.138;-2.118;2023-10-09T03:04:32;0.40;;;0.40;;
29002;SDS011;16102;57.138;-2.118;2023-10-09T03:07:00;0.73;;;0.73;;
29002;SDS011;16102;57.138;-2.118;2023-10-09T03:09:27;0.50;;;0.50;;
29002;SDS011;16102;57.138;-2.118;2023-10-09T03:11:56;0.50;;;0.50;;
29002;SDS011;16102;57.138;-2.118;2023-10-09T03:14:30;0.30;;;0.30;;
29002;SDS011;16102;57.138;-2.118;2023-10-09T03:16:58;0.30;;;0.30;;
29002;SDS011;16102;57.138;-2.118;2023-10-09T03:19:25;0.77;;;0.68;;
29002;SDS011;16102;57.138;-2.118;2023-10-09T03:21:53;0.57;;;0.57;;
29002;SDS011;16102;57.138;-2.118;2023-10-09T03:24:20;0.50;;;0.50;;
29002;SDS011;16102;57.138;-2.118;2023-10-09T03:26:49;0.52;;;0.45;;
29002;SDS011;16102;57.138;-2.118;2023-10-09T03:29:16;0.60;;;0.50;;
29002;SDS011;16102;57.138;-2.118;2023-10-09T03:31:45;0.47;;;0.47;;
29002;SDS011;16102;57.138;-2.118;2023-10-09T03:34:17;0.60;;;0.60;;
29002;SDS011;16102;57.138;-2.118;2023-10-09T03:36:45;0.40;;;0.40;;
29002;SDS011;16102;57.138;-2.118;2023-10-09T03:39:14;0.50;;;0.50;;
29002;SDS011;16102;57.138;-2.118;2023-10-09T03:41:51;0.65;;;0.60;;
29002;SDS011;16102;57.138;-2.118;2023-10-09T03:44:20;0.50;;;0.50;;
29002;SDS011;16102;57.138;-2.118;2023-10-09T03:46:48;0.40;;;0.40;;
29002;SDS011;16102;57.138;-2.118;2023-10-09T03:49:17;0.82;;;0.50;;
29002;SDS011;16102;57.138;-2.118;2023-10-09T03:51:50;0.55;;;0.55;;
29002;SDS011;16102;57.138;-2.118;2023-10-09T03:54:17;0.40;;;0.40;;
29002;SDS011;16102;57.138;-2.118;2023-10-09T03:56:49;0.40;;;0.40;;
29002;SDS011;16102;57.138;-2.118;2023-10-09T03:59:19;0.57;;;0.50;;
29002;SDS011;16102;57.138;-2.118;2023-10-09T04:01:47;0.77;;;0.60;;
29002;SDS011;16102;57.138;-2.118;2023-10-09T04:04:19;0.65;;;0.65;;
29002;SDS011;16102;57.138;-2.118;2023-10-09T04:06:49;0.52;;;0.52;;
29002;SDS011;16102;57.138;-2.118;2023-10-09T04:09:18;1.40;;;0.55;;
29002;SDS011;16102;57.138;-2.118;2023-10-09T04:11:48;0.35;;;0.35;;
29002;SDS011;16102;57.138;-2.118;2023-10-09T04:14:30;0.40;;;0.40;;
29002;SDS011;16102;57.138;-2.118;2023-10-09T04:17:00;1.85;;;0.30;;
29002;SDS011;16102;57.138;-2.118;2023-10-09T04:19:32;0.30;;;0.30;;
29002;SDS011;16102;57.138;-2.118;2023-10-09T04:22:14;0.40;;;0.40;;
29002;SDS011;16102;57.138;-2.118;2023-10-09T04:24:57;0.70;;;0.40;;
29002;SDS011;16102;57.138;-2.118;2023-10-09T04:27:24;0.50;;;0.50;;
29002;SDS011;16102;57.138;-2.118;2023-10-09T04:30:02;0.32;;;0.32;;
29002;SDS011;16102;57.138;-2.118;2023-10-09T04:32:33;0.38;;;0.38;;
29002;SDS011;16102;57.138;-2.118;2023-10-09T04:35:01;0.40;;;0.40;;
29002;SDS011;16102;57.138;-2.118;2023-10-09T04:38:00;0.30;;;0.30;;
29002;SDS011;16102;57.138;-2.118;2023-10-09T04:40:32;0.20;;;0.20;;
29002;SDS011;16102;57.138;-2.118;2023-10-09T04:43:14;0.25;;;0.25;;
29002;SDS011;16102;57.138;-2.118;2023-10-09T04:45:52;0.30;;;0.30;;
29002;SDS011;16102;57.138;-2.118;2023-10-09T04:51:14;0.20;;;0.20;;
29002;SDS011;16102;57.138;-2.118;2023-10-09T04:53:48;0.20;;;0.20;;
29002;SDS011;16102;57.138;-2.118;2023-10-09T04:56:39;0.20;;;0.20;;
29002;SDS011;16102;57.138;-2.118;2023-10-09T04:59:19;0.20;;;0.20;;
29002;SDS011;16102;57.138;-2.118;2023-10-09T05:01:51;0.30;;;0.30;;
29002;SDS011;16102;57.138;-2.118;2023-10-09T05:04:25;0.40;;;0.40;;
29002;SDS011;16102;57.138;-2.118;2023-10-09T05:09:49;0.30;;;0.22;;
29002;SDS011;16102;57.138;-2.118;2023-10-09T05:12:22;0.10;;;0.10;;
29002;SDS011;16102;57.138;-2.118;2023-10-09T05:14:55;0.15;;;0.13;;
29002;SDS011;16102;57.138;-2.118;2023-10-09T05:17:40;0.00;;;0.00;;
29002;SDS011;16102;57.138;-2.118;2023-10-09T05:20:18;0.00;;;0.00;;
29002;SDS011;16102;57.138;-2.118;2023-10-09T05:22:54;0.10;;;0.00;;
29002;SDS011;16102;57.138;-2.118;2023-10-09T05:25:27;0.10;;;0.00;;
29002;SDS011;16102;57.138;-2.118;2023-10-09T05:28:26;0.03;;;0.03;;
29002;SDS011;16102;57.138;-2.118;2023-10-09T05:31:15;0.00;;;0.00;;
29002;SDS011;16102;57.138;-2.118;2023-10-09T05:34:20;0.00;;;0.00;;
29002;SDS011;16102;57.138;-2.118;2023-10-09T05:36:48;0.00;;;0.00;;
29002;SDS011;16102;57.138;-2.118;2023-10-09T05:39:16;0.05;;;0.05;;
29002;SDS011;16102;57.138;-2.118;2023-10-09T05:41:45;0.00;;;0.00;;
29002;SDS011;16102;57.138;-2.118;2023-10-09T05:44:18;0.00;;;0.00;;
29002;SDS011;16102;57.138;-2.118;2023-10-09T05:47:03;0.10;;;0.10;;
29002;SDS011;16102;57.138;-2.118;2023-10-09T05:49:49;0.00;;;0.00;;
29002;SDS011;16102;57.138;-2.118;2023-10-09T05:52:29;0.10;;;0.10;;
29002;SDS011;16102;57.138;-2.118;2023-10-09T05:55:09;0.00;;;0.00;;
29002;SDS011;16102;57.138;-2.118;2023-10-09T05:57:56;0.00;;;0.00;;
29002;SDS011;16102;57.138;-2.118;2023-10-09T06:00:23;0.00;;;0.00;;
29002;SDS011;16102;57.138;-2.118;2023-10-09T06:03:10;0.85;;;0.00;;
29002;SDS011;16102;57.138;-2.118;2023-10-09T06:05:50;0.85;;;0.00;;
29002;SDS011;16102;57.138;-2.118;2023-10-09T06:08:28;0.03;;;0.03;;
29002;SDS011;16102;57.138;-2.118;2023-10-09T06:11:09;0.00;;;0.00;;
29002;SDS011;16102;57.138;-2.118;2023-10-09T06:13:56;0.10;;;0.10;;
29002;SDS011;16102;57.138;-2.118;2023-10-09T06:16:37;0.00;;;0.00;;
29002;SDS011;16102;57.138;-2.118;2023-10-09T06:19:08;0.05;;;0.05;;
29002;SDS011;16102;57.138;-2.118;2023-10-09T06:21:46;0.17;;;0.10;;
29002;SDS011;16102;57.138;-2.118;2023-10-09T06:24:19;0.00;;;0.00;;
29002;SDS011;16102;57.138;-2.118;2023-10-09T06:26:49;0.10;;;0.10;;
29002;SDS011;16102;57.138;-2.118;2023-10-09T06:29:26;0.10;;;0.10;;
29002;SDS011;16102;57.138;-2.118;2023-10-09T06:32:03;0.10;;;0.10;;
29002;SDS011;16102;57.138;-2.118;2023-10-09T06:37:23;0.22;;;0.10;;
29002;SDS011;16102;57.138;-2.118;2023-10-09T06:39:54;0.22;;;0.10;;
29002;SDS011;16102;57.138;-2.118;2023-10-09T06:47:32;0.38;;;0.30;;
29002;SDS011;16102;57.138;-2.118;2023-10-09T06:50:09;0.10;;;0.10;;
29002;SDS011;16102;57.138;-2.118;2023-10-09T06:52:46;0.20;;;0.20;;
29002;SDS011;16102;57.138;-2.118;2023-10-09T06:55:35;0.25;;;0.10;;
29002;SDS011;16102;57.138;-2.118;2023-10-09T06:58:15;0.10;;;0.10;;
29002;SDS011;16102;57.138;-2.118;2023-10-09T07:00:49;0.00;;;0.00;;
29002;SDS011;16102;57.138;-2.118;2023-10-09T07:03:26;0.10;;;0.10;;
29002;SDS011;16102;57.138;-2.118;2023-10-09T07:06:06;0.20;;;0.10;;
29002;SDS011;16102;57.138;-2.118;2023-10-09T07:08:57;0.10;;;0.03;;
29002;SDS011;16102;57.138;-2.118;2023-10-09T07:11:33;0.13;;;0.13;;
29002;SDS011;16102;57.138;-2.118;2023-10-09T07:16:33;0.10;;;0.00;;
29002;SDS011;16102;57.138;-2.118;2023-10-09T07:19:24;0.10;;;0.10;;
29002;SDS011;16102;57.138;-2.118;2023-10-09T07:22:00;0.00;;;0.00;;
29002;SDS011;16102;57.138;-2.118;2023-10-09T07:24:30;0.20;;;0.10;;
29002;SDS011;16102;57.138;-2.118;2023-10-09T07:27:19;0.17;;;0.10;;
29002;SDS011;16102;57.138;-2.118;2023-10-09T07:30:06;0.00;;;0.00;;
29002;SDS011;16102;57.138;-2.118;2023-10-09T07:32:53;0.28;;;0.00;;
29002;SDS011;16102;57.138;-2.118;2023-10-09T07:35:21;0.00;;;0.00;;
29002;SDS011;16102;57.138;-2.118;2023-10-09T07:38:07;0.00;;;0.00;;
29002;SDS011;16102;57.138;-2.118;2023-10-09T07:40:35;0.00;;;0.00;;
29002;SDS011;16102;57.138;-2.118;2023-10-09T07:45:55;0.28;;;0.10;;
29002;SDS011;16102;57.138;-2.118;2023-10-09T07:48:25;0.10;;;0.10;;
29002;SDS011;16102;57.138;-2.118;2023-10-09T07:50:52;0.20;;;0.05;;
29002;SDS011;16102;57.138;-2.118;2023-10-09T07:53:25;0.05;;;0.00;;
29002;SDS011;16102;57.138;-2.118;2023-10-09T07:55:53;0.00;;;0.00;;
29002;SDS011;16102;57.138;-2.118;2023-10-09T07:58:33;0.00;;;0.00;;
29002;SDS011;16102;57.138;-2.118;2023-10-09T08:01:13;0.20;;;0.10;;
29002;SDS011;16102;57.138;-2.118;2023-10-09T08:03:49;0.00;;;0.00;;
29002;SDS011;16102;57.138;-2.118;2023-10-09T08:06:29;0.20;;;0.08;;
29002;SDS011;16102;57.138;-2.118;2023-10-09T08:09:06;0.50;;;0.10;;
29002;SDS011;16102;57.138;-2.118;2023-10-09T08:11:48;0.45;;;0.10;;
29002;SDS011;16102;57.138;-2.118;2023-10-09T08:14:43;0.10;;;0.03;;
29002;SDS011;16102;57.138;-2.118;2023-10-09T08:17:12;0.75;;;0.08;;
29002;SDS011;16102;57.138;-2.118;2023-10-09T08:19:45;0.32;;;0.00;;
29002;SDS011;16102;57.138;-2.118;2023-10-09T08:22:37;0.10;;;0.10;;
29002;SDS011;16102;57.138;-2.118;2023-10-09T08:25:10;1.48;;;0.10;;
29002;SDS011;16102;57.138;-2.118;2023-10-09T08:28:03;0.75;;;0.10;;
29002;SDS011;16102;57.138;-2.118;2023-10-09T08:30:49;0.10;;;0.10;;
29002;SDS011;16102;57.138;-2.118;2023-10-09T08:33:17;0.00;;;0.00;;
29002;SDS011;16102;57.138;-2.118;2023-10-09T08:35:56;1.55;;;0.10;;
29002;SDS011;16102;57.138;-2.118;2023-10-09T08:38:34;0.20;;;0.10;;
29002;SDS011;16102;57.138;-2.118;2023-10-09T08:41:11;3.05;;;0.22;;
29002;SDS011;16102;57.138;-2.118;2023-10-09T08:43:49;0.20;;;0.10;;
29002;SDS011;16102;57.138;-2.118;2023-10-09T08:46:24;0.20;;;0.10;;
29002;SDS011;16102;57.138;-2.118;2023-10-09T08:48:56;0.30;;;0.10;;
29002;SDS011;16102;57.138;-2.118;2023-10-09T08:51:25;0.20;;;0.10;;
29002;SDS011;16102;57.138;-2.118;2023-10-09T08:53:54;0.35;;;0.10;;
29002;SDS011;16102;57.138;-2.118;2023-10-09T08:56:22;0.13;;;0.03;;
29002;SDS011;16102;57.138;-2.118;2023-10-09T08:58:53;0.73;;;0.20;;
29002;SDS011;16102;57.138;-2.118;2023-10-09T09:01:22;0.10;;;0.10;;
29002;SDS011;16102;57.138;-2.118;2023-10-09T09:03:52;0.10;;;0.10;;
29002;SDS011;16102;57.138;-2.118;2023-10-09T09:06:22;0.00;;;0.00;;
29002;SDS011;16102;57.138;-2.118;2023-10-09T09:08:50;0.73;;;0.20;;
29002;SDS011;16102;57.138;-2.118;2023-10-09T09:11:30;0.47;;;0.10;;
29002;SDS011;16102;57.138;-2.118;2023-10-09T09:14:14;0.15;;;0.10;;
29002;SDS011;16102;57.138;-2.118;2023-10-09T09:16:48;0.10;;;0.10;;
29002;SDS011;16102;57.138;-2.118;2023-10-09T09:19:16;0.35;;;0.10;;
29002;SDS011;16102;57.138;-2.118;2023-10-09T09:21:56;0.20;;;0.08;;
29002;SDS011;16102;57.138;-2.118;2023-10-09T09:24:41;0.40;;;0.03;;
29002;SDS011;16102;57.138;-2.118;2023-10-09T09:27:43;0.00;;;0.00;;
29002;SDS011;16102;57.138;-2.118;2023-10-09T09:30:25;0.20;;;0.10;;
29002;SDS011;16102;57.138;-2.118;2023-10-09T09:32:58;0.35;;;0.08;;
29002;SDS011;16102;57.138;-2.118;2023-10-09T09:38:33;0.68;;;0.13;;
29002;SDS011;16102;57.138;-2.118;2023-10-09T09:41:17;0.45;;;0.20;;
29002;SDS011;16102;57.138;-2.118;2023-10-09T09:43:55;0.17;;;0.10;;
29002;SDS011;16102;57.138;-2.118;2023-10-09T09:46:23;0.30;;;0.10;;
29002;SDS011;16102;57.138;-2.118;2023-10-09T09:49:03;0.10;;;0.10;;
29002;SDS011;16102;57.138;-2.118;2023-10-09T09:51:32;0.20;;;0.20;;
29002;SDS011;16102;57.138;-2.118;2023-10-09T09:53:59;0.60;;;0.10;;
29002;SDS011;16102;57.138;-2.118;2023-10-09T09:56:28;0.10;;;0.10;;
29002;SDS011;16102;57.138;-2.118;2023-10-09T09:58:57;5.53;;;0.40;;
29002;SDS011;16102;57.138;-2.118;2023-10-09T10:01:33;1.27;;;0.10;;
29002;SDS011;16102;57.138;-2.118;2023-10-09T10:04:05;0.17;;;0.00;;
29002;SDS011;16102;57.138;-2.118;2023-10-09T10:09:19;0.45;;;0.00;;
29002;SDS011;16102;57.138;-2.118;2023-10-09T10:12:05;0.65;;;0.15;;
29002;SDS011;16102;57.138;-2.118;2023-10-09T10:18:20;0.10;;;0.00;;
29002;SDS011;16102;57.138;-2.118;2023-10-09T10:20:27;0.08;;;0.05;;
29002;SDS011;16102;57.138;-2.118;2023-10-09T10:23:16;0.10;;;0.10;;
29002;SDS011;16102;57.138;-2.118;2023-10-09T10:25:45;0.10;;;0.10;;
29002;SDS011;16102;57.138;-2.118;2023-10-09T10:28:27;0.98;;;0.10;;
29002;SDS011;16102;57.138;-2.118;2023-10-09T10:31:11;0.35;;;0.00;;
29002;SDS011;16102;57.138;-2.118;2023-10-09T10:36:22;1.10;;;0.10;;
29002;SDS011;16102;57.138;-2.118;2023-10-09T10:41:38;0.00;;;0.00;;
29002;SDS011;16102;57.138;-2.118;2023-10-09T10:44:30;0.03;;;0.03;;
29002;SDS011;16102;57.138;-2.118;2023-10-09T10:47:07;0.00;;;0.00;;
29002;SDS011;16102;57.138;-2.118;2023-10-09T10:49:54;0.75;;;0.00;;
29002;SDS011;16102;57.138;-2.118;2023-10-09T10:52:25;0.15;;;0.00;;
29002;SDS011;16102;57.138;-2.118;2023-10-09T10:55:09;0.38;;;0.10;;
29002;SDS011;16102;57.138;-2.118;2023-10-09T10:57:45;0.10;;;0.00;;
29002;SDS011;16102;57.138;-2.118;2023-10-09T11:00:36;0.00;;;0.00;;
29002;SDS011;16102;57.138;-2.118;2023-10-09T11:03:21;1.17;;;0.00;;
29002;SDS011;16102;57.138;-2.118;2023-10-09T11:06:08;0.00;;;0.00;;
29002;SDS011;16102;57.138;-2.118;2023-10-09T11:08:45;0.00;;;0.00;;
29002;SDS011;16102;57.138;-2.118;2023-10-09T11:11:21;0.00;;;0.00;;
29002;SDS011;16102;57.138;-2.118;2023-10-09T11:13:49;0.00;;;0.00;;
29002;SDS011;16102;57.138;-2.118;2023-10-09T11:16:24;0.10;;;0.08;;
29002;SDS011;16102;57.138;-2.118;2023-10-09T11:19:11;0.00;;;0.00;;
29002;SDS011;16102;57.138;-2.118;2023-10-09T11:21:50;2.13;;;0.00;;
29002;SDS011;16102;57.138;-2.118;2023-10-09T11:24:26;0.20;;;0.10;;
29002;SDS011;16102;57.138;-2.118;2023-10-09T11:27:02;0.40;;;0.03;;
29002;SDS011;16102;57.138;-2.118;2023-10-09T11:29:33;0.20;;;0.10;;
29002;SDS011;16102;57.138;-2.118;2023-10-09T11:32:20;0.03;;;0.00;;
29002;SDS011;16102;57.138;-2.118;2023-10-09T11:35:09;0.20;;;0.10;;
29002;SDS011;16102;57.138;-2.118;2023-10-09T11:37:38;0.00;;;0.00;;
29002;SDS011;16102;57.138;-2.118;2023-10-09T11:40:28;0.77;;;0.10;;
29002;SDS011;16102;57.138;-2.118;2023-10-09T11:43:14;0.00;;;0.00;;
29002;SDS011;16102;57.138;-2.118;2023-10-09T11:45:41;0.90;;;0.10;;
29002;SDS011;16102;57.138;-2.118;2023-10-09T11:48:21;1.38;;;0.30;;
29002;SDS011;16102;57.138;-2.118;2023-10-09T11:50:59;0.03;;;0.00;;
29002;SDS011;16102;57.138;-2.118;2023-10-09T11:53:28;0.00;;;0.00;;
29002;SDS011;16102;57.138;-2.118;2023-10-09T11:56:05;0.00;;;0.00;;
29002;SDS011;16102;57.138;-2.118;2023-10-09T11:58:36;0.00;;;0.00;;
29002;SDS011;16102;57.138;-2.118;2023-10-09T12:01:11;0.17;;;0.00;;
29002;SDS011;16102;57.138;-2.118;2023-10-09T12:03:47;0.35;;;0.22;;
29002;SDS011;16102;57.138;-2.118;2023-10-09T12:06:19;0.30;;;0.10;;
29002;SDS011;16102;57.138;-2.118;2023-10-09T12:08:50;0.00;;;0.00;;
29002;SDS011;16102;57.138;-2.118;2023-10-09T12:11:17;0.00;;;0.00;;
29002;SDS011;16102;57.138;-2.118;2023-10-09T12:13:56;0.00;;;0.00;;
29002;SDS011;16102;57.138;-2.118;2023-10-09T12:16:24;0.00;;;0.00;;
29002;SDS011;16102;57.138;-2.118;2023-10-09T12:18:55;0.00;;;0.00;;
29002;SDS011;16102;57.138;-2.118;2023-10-09T12:21:23;0.00;;;0.00;;
29002;SDS011;16102;57.138;-2.118;2023-10-09T12:23:50;0.00;;;0.00;;
29002;SDS011;16102;57.138;-2.118;2023-10-09T12:26:17;0.00;;;0.00;;
29002;SDS011;16102;57.138;-2.118;2023-10-09T12:28:44;0.05;;;0.00;;
29002;SDS011;16102;57.138;-2.118;2023-10-09T12:31:16;0.10;;;0.00;;
29002;SDS011;16102;57.138;-2.118;2023-10-09T12:33:47;0.55;;;0.10;;
29002;SDS011;16102;57.138;-2.118;2023-10-09T12:36:16;0.00;;;0.00;;
29002;SDS011;16102;57.138;-2.118;2023-10-09T12:38:47;0.20;;;0.10;;
29002;SDS011;16102;57.138;-2.118;2023-10-09T12:41:20;0.05;;;0.00;;
29002;SDS011;16102;57.138;-2.118;2023-10-09T12:43:55;0.20;;;0.10;;
29002;SDS011;16102;57.138;-2.118;2023-10-09T12:46:25;0.10;;;0.10;;
29002;SDS011;16102;57.138;-2.118;2023-10-09T12:48:52;0.68;;;0.20;;
29002;SDS011;16102;57.138;-2.118;2023-10-09T12:51:25;0.55;;;0.10;;
29002;SDS011;16102;57.138;-2.118;2023-10-09T12:53:56;0.10;;;0.10;;
29002;SDS011;16102;57.138;-2.118;2023-10-09T12:56:24;0.00;;;0.00;;
29002;SDS011;16102;57.138;-2.118;2023-10-09T12:59:05;0.40;;;0.10;;
29002;SDS011;16102;57.138;-2.118;2023-10-09T13:01:34;1.27;;;0.13;;
29002;SDS011;16102;57.138;-2.118;2023-10-09T13:04:10;0.30;;;0.00;;
29002;SDS011;16102;57.138;-2.118;2023-10-09T13:08:57;0.10;;;0.10;;
29002;SDS011;16102;57.138;-2.118;2023-10-09T13:11:26;0.52;;;0.20;;
29002;SDS011;16102;57.138;-2.118;2023-10-09T13:13:54;0.20;;;0.20;;
29002;SDS011;16102;57.138;-2.118;2023-10-09T13:16:22;0.17;;;0.10;;
29002;SDS011;16102;57.138;-2.118;2023-10-09T13:18:52;0.00;;;0.00;;
29002;SDS011;16102;57.138;-2.118;2023-10-09T13:23:49;0.50;;;0.17;;
29002;SDS011;16102;57.138;-2.118;2023-10-09T13:26:17;0.90;;;0.17;;
29002;SDS011;16102;57.138;-2.118;2023-10-09T13:28:59;0.30;;;0.20;;
29002;SDS011;16102;57.138;-2.118;2023-10-09T13:31:29;0.63;;;0.25;;
29002;SDS011;16102;57.138;-2.118;2023-10-09T13:34:01;0.00;;;0.00;;
29002;SDS011;16102;57.138;-2.118;2023-10-09T13:36:29;2.30;;;0.25;;
29002;SDS011;16102;57.138;-2.118;2023-10-09T13:39:04;0.20;;;0.20;;
29002;SDS011;16102;57.138;-2.118;2023-10-09T13:41:54;0.38;;;0.17;;
29002;SDS011;16102;57.138;-2.118;2023-10-09T13:44:27;1.67;;;0.22;;
29002;SDS011;16102;57.138;-2.118;2023-10-09T13:47:03;0.20;;;0.20;;
29002;SDS011;16102;57.138;-2.118;2023-10-09T13:49:37;0.30;;;0.28;;
29002;SDS011;16102;57.138;-2.118;2023-10-09T13:52:09;0.25;;;0.20;;
29002;SDS011;16102;57.138;-2.118;2023-10-09T13:54:36;1.23;;;0.30;;
29002;SDS011;16102;57.138;-2.118;2023-10-09T13:57:03;0.98;;;0.20;;
29002;SDS011;16102;57.138;-2.118;2023-10-09T13:59:33;0.80;;;0.40;;
29002;SDS011;16102;57.138;-2.118;2023-10-09T14:02:09;0.52;;;0.32;;
29002;SDS011;16102;57.138;-2.118;2023-10-09T14:04:45;1.38;;;0.38;;
29002;SDS011;16102;57.138;-2.118;2023-10-09T14:07:14;0.30;;;0.20;;
29002;SDS011;16102;57.138;-2.118;2023-10-09T14:09:44;0.35;;;0.20;;
29002;SDS011;16102;57.138;-2.118;2023-10-09T14:12:21;0.25;;;0.13;;
29002;SDS011;16102;57.138;-2.118;2023-10-09T14:14:51;0.30;;;0.30;;
29002;SDS011;16102;57.138;-2.118;2023-10-09T14:17:21;0.35;;;0.22;;
29002;SDS011;16102;57.138;-2.118;2023-10-09T14:19:55;0.75;;;0.30;;
29002;SDS011;16102;57.138;-2.118;2023-10-09T14:22:43;1.98;;;0.60;;
